Time;durP1;ratioP1;P1;durP2;ratioP2;P2;SDS_P1;SDS_P2;PMS_P1;PMS_P2;Temp;Humidity;BMP_temperature;BMP_pressure;BME280_temperature;BME280_humidity;BME280_pressure;Samples;Min_cycle;Max_cycle;Signal;HPM_P1;HPM_P2
2021/04/08 00:02:00;;;;;;;10.15;5.37;;;1.90;99.90;;;;;;494039;239;27389;-72
2021/04/08 00:04:01;;;;;;;11.55;5.68;;;1.90;99.90;;;;;;494031;239;27438;-71
2021/04/08 00:06:02;;;;;;;7.47;5.00;;;1.90;99.90;;;;;;494050;240;27345;-71
2021/04/08 00:08:04;;;;;;;5.20;4.70;;;1.90;99.90;;;;;;494012;239;27960;-71
2021/04/08 00:10:05;;;;;;;9.85;5.25;;;1.90;99.90;;;;;;494036;239;28015;-71
2021/04/08 00:12:06;;;;;;;8.15;5.15;;;1.90;99.90;;;;;;494046;239;27941;-72
2021/04/08 00:14:07;;;;;;;9.63;5.15;;;1.90;99.90;;;;;;494011;239;27900;-72
2021/04/08 00:16:09;;;;;;;7.80;4.72;;;1.90;99.90;;;;;;494044;239;27432;-71
2021/04/08 00:18:10;;;;;;;7.47;6.00;;;1.80;99.90;;;;;;494039;239;27388;-72
2021/04/08 00:20:11;;;;;;;7.18;5.47;;;1.80;99.90;;;;;;494026;239;27483;-72
2021/04/08 00:22:12;;;;;;;9.40;6.10;;;1.80;99.90;;;;;;492192;239;27490;-72
2021/04/08 00:24:14;;;;;;;9.90;5.00;;;1.80;99.90;;;;;;491510;241;27501;-72
2021/04/08 00:26:15;;;;;;;7.55;5.18;;;1.70;99.90;;;;;;491570;241;27508;-72
2021/04/08 00:28:16;;;;;;;7.10;5.68;;;1.70;99.90;;;;;;491532;241;27886;-71
2021/04/08 00:30:17;;;;;;;9.20;5.28;;;1.70;99.90;;;;;;491529;241;27516;-72
2021/04/08 00:32:19;;;;;;;7.32;5.15;;;1.70;99.90;;;;;;491522;241;27504;-72
2021/04/08 00:34:20;;;;;;;6.00;5.40;;;1.70;99.90;;;;;;491527;241;27469;-72
2021/04/08 00:36:21;;;;;;;8.60;4.85;;;1.70;99.90;;;;;;491558;241;27965;-71
2021/04/08 00:38:22;;;;;;;7.75;5.40;;;1.80;99.90;;;;;;491529;241;28105;-73
2021/04/08 00:40:24;;;;;;;5.43;4.82;;;1.80;99.90;;;;;;491526;241;28017;-71
2021/04/08 00:42:25;;;;;;;7.22;4.45;;;1.70;99.90;;;;;;491539;241;28153;-72
2021/04/08 00:44:26;;;;;;;8.82;5.37;;;1.70;99.90;;;;;;491536;241;27485;-72
2021/04/08 00:46:27;;;;;;;8.75;5.47;;;1.70;99.90;;;;;;491528;241;27512;-71
2021/04/08 00:48:29;;;;;;;7.32;5.10;;;1.70;99.90;;;;;;491524;241;27521;-72
2021/04/08 00:50:30;;;;;;;7.80;5.65;;;1.70;99.90;;;;;;491526;241;27502;-71
2021/04/08 00:52:31;;;;;;;6.60;5.15;;;1.70;99.90;;;;;;491579;241;27521;-72
2021/04/08 00:54:32;;;;;;;8.95;5.75;;;1.70;99.90;;;;;;491563;241;27476;-72
2021/04/08 00:56:34;;;;;;;9.75;4.95;;;1.70;99.90;;;;;;491547;241;27526;-71
2021/04/08 00:58:35;;;;;;;13.45;5.70;;;1.70;99.90;;;;;;491539;241;27838;-71
2021/04/08 01:00:38;;;;;;;9.95;5.50;;;1.70;99.90;;;;;;491623;241;27496;-72
2021/04/08 01:02:37;;;;;;;8.02;5.10;;;1.70;99.90;;;;;;491625;242;27501;-71
2021/04/08 01:04:39;;;;;;;5.95;5.18;;;1.70;99.90;;;;;;491712;241;27949;-71
2021/04/08 01:06:40;;;;;;;6.00;4.65;;;1.70;99.90;;;;;;491689;241;28229;-72
2021/04/08 01:08:41;;;;;;;7.95;5.30;;;1.70;99.90;;;;;;491596;241;27960;-72
2021/04/08 01:10:44;;;;;;;11.38;5.28;;;1.70;99.90;;;;;;491445;241;27928;-72
2021/04/08 01:12:44;;;;;;;5.95;4.80;;;1.60;99.90;;;;;;491313;242;27545;-72
2021/04/08 01:14:45;;;;;;;8.48;5.30;;;1.60;99.90;;;;;;491372;241;27472;-72
2021/04/08 01:16:46;;;;;;;6.85;5.40;;;1.60;99.90;;;;;;491447;241;27555;-71
2021/04/08 01:18:47;;;;;;;11.85;5.30;;;1.60;99.90;;;;;;491461;241;27413;-71
2021/04/08 01:20:49;;;;;;;7.72;4.75;;;1.50;99.90;;;;;;491490;241;27555;-71
2021/04/08 01:22:50;;;;;;;7.43;5.28;;;1.60;99.90;;;;;;491502;241;27469;-72
2021/04/08 01:24:51;;;;;;;7.47;4.87;;;1.60;99.90;;;;;;491499;241;27497;-72
2021/04/08 01:26:52;;;;;;;9.77;5.28;;;1.60;99.90;;;;;;491450;241;27445;-71
2021/04/08 01:28:54;;;;;;;12.35;5.35;;;1.60;99.90;;;;;;491471;241;27611;-72
2021/04/08 01:30:55;;;;;;;7.47;5.22;;;1.60;99.90;;;;;;491552;241;27959;-71
2021/04/08 01:32:56;;;;;;;10.48;5.65;;;1.50;99.90;;;;;;491568;241;28108;-72
2021/04/08 01:34:57;;;;;;;9.48;5.32;;;1.50;99.90;;;;;;491567;241;28063;-72
2021/04/08 01:36:59;;;;;;;7.87;5.60;;;1.50;99.90;;;;;;491546;241;27419;-71
2021/04/08 01:39:00;;;;;;;8.57;5.50;;;1.40;99.90;;;;;;491552;241;27419;-71
2021/04/08 01:41:01;;;;;;;8.25;5.40;;;1.50;99.90;;;;;;491534;241;27513;-72
2021/04/08 01:43:02;;;;;;;6.78;4.82;;;1.40;99.90;;;;;;491537;241;27408;-72
2021/04/08 01:45:04;;;;;;;6.28;4.85;;;1.40;99.90;;;;;;491552;241;27424;-72
2021/04/08 01:47:05;;;;;;;5.50;4.70;;;1.40;99.90;;;;;;491514;241;27491;-71
2021/04/08 01:49:06;;;;;;;7.10;5.68;;;1.40;99.90;;;;;;491511;241;27600;-72
2021/04/08 01:51:07;;;;;;;6.07;5.12;;;1.40;99.90;;;;;;491550;241;27417;-71
2021/04/08 01:53:09;;;;;;;6.97;5.65;;;1.30;99.90;;;;;;491542;241;27523;-72
2021/04/08 01:55:10;;;;;;;9.95;5.78;;;1.30;99.90;;;;;;491549;241;27512;-72
2021/04/08 01:57:11;;;;;;;7.87;5.62;;;1.30;99.90;;;;;;491548;241;27897;-72
2021/04/08 01:59:13;;;;;;;5.80;4.78;;;1.20;99.90;;;;;;491515;241;28024;-71
2021/04/08 02:01:14;;;;;;;6.03;4.90;;;1.20;99.90;;;;;;491541;241;28146;-71
2021/04/08 02:03:15;;;;;;;7.20;5.47;;;1.20;99.90;;;;;;491568;241;27987;-71
2021/04/08 02:05:16;;;;;;;8.07;5.53;;;1.10;99.90;;;;;;491576;241;27505;-71
2021/04/08 02:07:17;;;;;;;10.02;5.80;;;1.10;99.90;;;;;;491559;241;27543;-71
2021/04/08 02:09:19;;;;;;;7.68;5.65;;;1.10;99.90;;;;;;491539;241;27520;-71
2021/04/08 02:11:20;;;;;;;8.68;5.78;;;1.00;99.90;;;;;;491623;241;27583;-71
2021/04/08 02:13:21;;;;;;;6.68;5.70;;;1.00;99.90;;;;;;491592;241;27486;-71
2021/04/08 02:15:22;;;;;;;8.50;5.78;;;1.00;99.90;;;;;;491596;241;27529;-71
2021/04/08 02:17:24;;;;;;;9.32;5.65;;;1.00;99.90;;;;;;491601;241;27389;-71
2021/04/08 02:19:25;;;;;;;10.25;6.32;;;0.90;99.90;;;;;;491554;241;27524;-71
2021/04/08 02:21:26;;;;;;;7.35;5.50;;;0.90;99.90;;;;;;491645;241;27579;-71
2021/04/08 02:23:27;;;;;;;7.85;5.55;;;0.90;99.90;;;;;;491773;241;27890;-72
2021/04/08 02:25:29;;;;;;;7.97;5.28;;;0.80;99.90;;;;;;491718;241;28030;-72
2021/04/08 02:27:30;;;;;;;6.62;5.93;;;0.80;99.90;;;;;;491660;241;28632;-71
2021/04/08 02:29:31;;;;;;;6.75;5.57;;;0.70;99.90;;;;;;491565;241;27995;-72
2021/04/08 02:31:32;;;;;;;8.30;5.43;;;0.70;99.90;;;;;;491574;241;27611;-72
2021/04/08 02:33:34;;;;;;;9.02;5.22;;;0.70;99.90;;;;;;491572;241;27468;-71
2021/04/08 02:35:35;;;;;;;8.57;6.03;;;0.60;99.90;;;;;;491564;241;27532;-72
2021/04/08 02:37:36;;;;;;;7.03;5.47;;;0.60;99.90;;;;;;491560;241;27508;-73
2021/04/08 02:39:37;;;;;;;7.00;5.75;;;0.60;99.90;;;;;;491522;241;27532;-71
2021/04/08 02:41:39;;;;;;;8.20;6.30;;;0.60;99.90;;;;;;491562;241;27429;-72
2021/04/08 02:43:40;;;;;;;7.30;6.25;;;0.60;99.90;;;;;;491565;241;27528;-71
2021/04/08 02:45:41;;;;;;;8.50;6.18;;;0.60;99.90;;;;;;491537;241;27599;-72
2021/04/08 02:47:42;;;;;;;10.73;5.80;;;0.60;99.90;;;;;;491541;241;27424;-72
2021/04/08 02:49:44;;;;;;;11.20;5.80;;;0.60;99.90;;;;;;491532;241;27417;-71
2021/04/08 02:51:45;;;;;;;8.10;6.60;;;0.50;99.90;;;;;;491483;241;27993;-71
2021/04/08 02:53:46;;;;;;;9.73;6.47;;;0.50;99.90;;;;;;491512;241;29052;-72
2021/04/08 02:55:47;;;;;;;7.32;6.25;;;0.40;99.90;;;;;;491499;241;27977;-71
2021/04/08 02:57:49;;;;;;;10.20;7.12;;;0.40;99.90;;;;;;491519;241;27409;-72
2021/04/08 02:59:50;;;;;;;8.80;6.47;;;0.40;99.90;;;;;;491513;241;27532;-71
2021/04/08 03:01:51;;;;;;;9.82;6.30;;;0.30;99.90;;;;;;491493;241;27516;-72
2021/04/08 03:03:52;;;;;;;6.93;6.22;;;0.30;99.90;;;;;;491552;241;27522;-72
2021/04/08 03:05:54;;;;;;;8.73;6.20;;;0.30;99.90;;;;;;491397;241;27585;-72
2021/04/08 03:07:55;;;;;;;12.57;6.45;;;0.30;99.90;;;;;;491558;241;27509;-71
2021/04/08 03:09:56;;;;;;;8.35;5.65;;;0.20;99.90;;;;;;491542;241;27413;-72
2021/04/08 03:11:57;;;;;;;11.80;7.10;;;0.20;99.90;;;;;;491552;241;27516;-72
2021/04/08 03:13:59;;;;;;;9.68;6.20;;;0.20;99.90;;;;;;491592;241;27608;-71
2021/04/08 03:16:00;;;;;;;10.32;6.62;;;0.20;99.90;;;;;;491507;241;28675;-72
2021/04/08 03:18:01;;;;;;;11.95;7.12;;;0.10;99.90;;;;;;491513;241;28048;-71
2021/04/08 03:20:03;;;;;;;10.20;8.38;;;0.00;99.90;;;;;;491492;241;28475;-71
2021/04/08 03:22:04;;;;;;;8.95;6.57;;;0.00;99.90;;;;;;491498;241;27477;-72
2021/04/08 03:24:05;;;;;;;10.15;6.47;;;0.00;99.90;;;;;;491515;241;27509;-72
2021/04/08 03:26:06;;;;;;;10.68;6.43;;;-0.10;99.90;;;;;;491535;241;27493;-71
2021/04/08 03:28:08;;;;;;;14.13;7.20;;;0.00;99.90;;;;;;491534;241;27505;-71
2021/04/08 03:30:09;;;;;;;12.35;7.07;;;0.00;99.90;;;;;;491625;241;27424;-72
2021/04/08 03:32:10;;;;;;;12.75;7.32;;;0.00;99.90;;;;;;491598;241;27466;-71
2021/04/08 03:34:11;;;;;;;10.43;7.10;;;-0.10;99.90;;;;;;491666;241;27606;-71
2021/04/08 03:36:13;;;;;;;15.02;7.62;;;-0.10;99.90;;;;;;491684;241;28827;-71
2021/04/08 03:38:14;;;;;;;7.57;6.78;;;-0.20;99.90;;;;;;491646;241;29088;-71
2021/04/08 03:40:15;;;;;;;16.10;7.45;;;-0.20;99.90;;;;;;491748;241;27413;-72
2021/04/08 03:42:16;;;;;;;13.88;8.07;;;-0.20;99.90;;;;;;491676;241;27377;-71
2021/04/08 03:44:18;;;;;;;6.93;6.18;;;-0.30;99.90;;;;;;491734;241;27465;-72
2021/04/08 03:46:19;;;;;;;9.50;7.20;;;-0.30;99.90;;;;;;491575;241;27870;-71
2021/04/08 03:48:20;;;;;;;11.10;7.45;;;-0.40;99.90;;;;;;491524;242;27517;-72
2021/04/08 03:50:21;;;;;;;17.37;7.68;;;-0.40;99.90;;;;;;491553;241;27607;-71
2021/04/08 03:52:23;;;;;;;10.68;7.57;;;-0.50;99.90;;;;;;491538;241;28000;-72
2021/04/08 03:54:24;;;;;;;11.45;7.45;;;-0.50;99.90;;;;;;491509;241;27999;-72
2021/04/08 03:56:25;;;;;;;10.02;7.90;;;-0.40;99.90;;;;;;491531;241;27593;-71
2021/04/08 03:58:26;;;;;;;9.55;7.87;;;-0.50;99.90;;;;;;491526;241;27501;-71
2021/04/08 04:00:28;;;;;;;10.45;7.70;;;-0.50;99.90;;;;;;491566;241;27526;-72
2021/04/08 04:02:29;;;;;;;10.25;7.75;;;-0.50;99.90;;;;;;491571;241;27484;-71
2021/04/08 04:04:31;;;;;;;7.87;6.50;;;-0.50;99.90;;;;;;491510;241;27536;-71
2021/04/08 04:06:35;;;;;;;14.30;7.80;;;-0.40;99.90;;;;;;491508;241;27508;-72
2021/04/08 04:08:34;;;;;;;18.70;7.20;;;-0.50;99.90;;;;;;491375;242;27513;-72
2021/04/08 04:10:35;;;;;;;8.82;7.20;;;-0.40;99.90;;;;;;491567;241;27499;-72
2021/04/08 04:12:36;;;;;;;10.77;6.65;;;-0.40;99.90;;;;;;491527;241;27544;-71
2021/04/08 04:14:37;;;;;;;12.98;10.05;;;-0.40;99.90;;;;;;491507;241;27611;-71
2021/04/08 04:16:39;;;;;;;12.37;9.15;;;-0.40;99.90;;;;;;491509;241;28085;-72
2021/04/08 04:18:41;;;;;;;11.38;8.50;;;-0.50;99.90;;;;;;491490;241;27995;-72
2021/04/08 04:20:41;;;;;;;12.98;8.60;;;-0.50;99.90;;;;;;491838;241;27644;-71
2021/04/08 04:22:42;;;;;;;13.40;8.43;;;-0.40;99.90;;;;;;491884;241;27488;-72
2021/04/08 04:24:44;;;;;;;7.93;7.12;;;-0.40;99.90;;;;;;491890;241;27549;-72
2021/04/08 04:26:45;;;;;;;13.40;8.40;;;-0.40;99.90;;;;;;491884;241;27933;-72
2021/04/08 04:28:46;;;;;;;12.63;6.97;;;-0.40;99.90;;;;;;491854;241;27971;-71
2021/04/08 04:30:47;;;;;;;11.40;8.30;;;-0.40;99.90;;;;;;491550;241;27599;-72
2021/04/08 04:32:49;;;;;;;17.02;9.75;;;-0.40;99.90;;;;;;491566;241;27524;-73
2021/04/08 04:34:50;;;;;;;15.05;8.25;;;-0.40;99.90;;;;;;491539;241;27526;-72
2021/04/08 04:36:51;;;;;;;13.60;8.20;;;-0.40;99.90;;;;;;491534;241;27568;-71
2021/04/08 04:38:52;;;;;;;17.30;8.43;;;-0.40;99.90;;;;;;491564;241;27521;-71
2021/04/08 04:40:54;;;;;;;12.50;8.90;;;-0.40;99.90;;;;;;491525;241;27500;-72
2021/04/08 04:42:55;;;;;;;9.38;7.53;;;-0.40;99.90;;;;;;491541;241;27992;-71
2021/04/08 04:44:56;;;;;;;13.48;8.05;;;-0.50;99.90;;;;;;491510;241;29090;-71
2021/04/08 04:46:58;;;;;;;12.30;8.13;;;-0.50;99.90;;;;;;491580;241;27508;-71
2021/04/08 04:49:00;;;;;;;13.02;8.63;;;-0.50;99.90;;;;;;491683;241;27526;-71
2021/04/08 04:51:00;;;;;;;10.68;8.18;;;-0.50;99.90;;;;;;491662;241;27492;-72
2021/04/08 04:53:01;;;;;;;12.40;8.80;;;-0.60;99.90;;;;;;488841;239;27464;-72
2021/04/08 04:55:03;;;;;;;11.35;8.30;;;-0.60;99.90;;;;;;488385;243;27411;-71
2021/04/08 04:57:04;;;;;;;11.27;8.40;;;-0.60;99.90;;;;;;486914;244;27530;-72
2021/04/08 04:59:05;;;;;;;14.10;9.20;;;-0.50;99.90;;;;;;483229;246;27971;-71
2021/04/08 05:01:06;;;;;;;16.55;8.65;;;-0.50;99.90;;;;;;489037;242;29141;-71
2021/04/08 05:03:08;;;;;;;11.02;8.35;;;-0.50;99.90;;;;;;491130;242;27491;-71
2021/04/08 05:05:09;;;;;;;16.05;8.77;;;-0.50;99.90;;;;;;480509;246;27640;-72
2021/04/08 05:07:10;;;;;;;12.43;8.63;;;-0.60;99.90;;;;;;484395;245;27416;-71
2021/04/08 05:09:11;;;;;;;14.07;8.82;;;-0.50;99.90;;;;;;490705;242;27454;-72
2021/04/08 05:11:13;;;;;;;11.20;7.70;;;-0.50;99.90;;;;;;489713;242;27505;-72
2021/04/08 05:13:14;;;;;;;11.05;8.30;;;-0.40;99.90;;;;;;479098;247;27534;-72
2021/04/08 05:15:15;;;;;;;17.65;8.80;;;-0.30;99.90;;;;;;484426;245;27907;-71
2021/04/08 05:17:16;;;;;;;12.52;7.78;;;-0.30;99.90;;;;;;484472;245;27895;-71
2021/04/08 05:19:18;;;;;;;14.60;8.65;;;-0.20;99.90;;;;;;484428;245;27405;-72
2021/04/08 05:21:19;;;;;;;14.35;9.82;;;-0.10;99.90;;;;;;484452;245;27412;-72
2021/04/08 05:23:20;;;;;;;12.18;9.52;;;0.00;99.90;;;;;;484486;245;27416;-72
2021/04/08 05:25:21;;;;;;;12.52;7.45;;;0.00;99.90;;;;;;484401;244;27424;-72
2021/04/08 05:27:23;;;;;;;14.50;9.50;;;0.00;99.90;;;;;;484465;245;27556;-72
2021/04/08 05:29:24;;;;;;;13.77;8.70;;;0.10;99.90;;;;;;484467;245;27413;-71
2021/04/08 05:31:25;;;;;;;12.75;9.05;;;0.10;99.90;;;;;;484378;245;27963;-72
2021/04/08 05:33:26;;;;;;;17.90;8.95;;;0.10;99.90;;;;;;484434;243;27878;-72
2021/04/08 05:35:28;;;;;;;16.37;9.52;;;0.10;99.90;;;;;;484384;245;27930;-72
2021/04/08 05:37:30;;;;;;;12.25;8.18;;;0.10;99.90;;;;;;484395;245;27487;-73
2021/04/08 05:39:30;;;;;;;11.12;8.15;;;0.20;99.90;;;;;;484434;243;27504;-73
2021/04/08 05:41:31;;;;;;;13.23;9.43;;;0.20;99.90;;;;;;484468;244;27475;-72
2021/04/08 05:43:33;;;;;;;14.77;8.30;;;0.20;99.90;;;;;;484385;243;27404;-72
2021/04/08 05:45:34;;;;;;;12.25;9.52;;;0.30;99.90;;;;;;484408;244;27428;-72
2021/04/08 05:47:35;;;;;;;13.73;9.68;;;0.30;99.90;;;;;;484293;245;27520;-72
2021/04/08 05:49:36;;;;;;;14.65;9.23;;;0.40;99.90;;;;;;484357;245;27511;-73
2021/04/08 05:51:38;;;;;;;14.55;9.10;;;0.40;99.90;;;;;;484400;245;27988;-73
2021/04/08 05:53:39;;;;;;;12.88;9.55;;;0.50;99.90;;;;;;484463;245;27997;-73
2021/04/08 05:55:40;;;;;;;14.27;9.60;;;0.50;99.90;;;;;;484405;244;28623;-73
2021/04/08 05:57:41;;;;;;;14.55;9.63;;;0.50;99.90;;;;;;484449;245;27385;-73
2021/04/08 05:59:43;;;;;;;13.18;9.13;;;0.50;99.90;;;;;;484455;245;27418;-74
2021/04/08 06:01:44;;;;;;;15.88;9.27;;;0.60;99.90;;;;;;484424;245;27424;-73
2021/04/08 06:03:45;;;;;;;13.27;10.30;;;0.60;99.90;;;;;;484459;245;27428;-73
2021/04/08 06:05:46;;;;;;;16.35;9.95;;;0.70;99.90;;;;;;484478;245;27412;-73
2021/04/08 06:07:48;;;;;;;12.30;10.15;;;0.70;99.90;;;;;;484449;245;27439;-73
2021/04/08 06:09:49;;;;;;;16.05;9.55;;;0.70;99.90;;;;;;484469;245;27985;-73
2021/04/08 06:11:50;;;;;;;18.00;10.40;;;0.80;99.90;;;;;;484510;245;28620;-73
2021/04/08 06:13:52;;;;;;;14.25;9.32;;;0.90;99.90;;;;;;484426;245;27899;-73
2021/04/08 06:15:53;;;;;;;16.45;10.10;;;0.90;99.90;;;;;;484546;245;27493;-73
2021/04/08 06:17:54;;;;;;;15.15;10.32;;;1.00;99.90;;;;;;484604;243;27451;-73
2021/04/08 06:19:55;;;;;;;13.98;9.60;;;1.00;99.90;;;;;;484592;245;27440;-73
2021/04/08 06:21:56;;;;;;;16.58;10.85;;;1.10;99.90;;;;;;484654;244;27404;-73
2021/04/08 06:23:58;;;;;;;16.33;10.02;;;1.10;99.90;;;;;;484662;245;27509;-73
2021/04/08 06:25:59;;;;;;;18.15;9.85;;;1.10;99.90;;;;;;484594;245;27902;-73
2021/04/08 06:28:00;;;;;;;15.27;11.05;;;1.20;99.90;;;;;;484672;245;27832;-73
2021/04/08 06:30:02;;;;;;;14.07;10.10;;;1.20;99.90;;;;;;484698;245;27883;-73
2021/04/08 06:32:03;;;;;;;17.75;10.27;;;1.20;99.90;;;;;;484509;245;27459;-73
2021/04/08 06:34:04;;;;;;;17.08;10.30;;;1.30;99.90;;;;;;484501;244;27411;-73
2021/04/08 06:36:05;;;;;;;18.58;10.95;;;1.30;99.90;;;;;;484537;245;27745;-73
2021/04/08 06:38:07;;;;;;;18.33;10.18;;;1.30;99.90;;;;;;484452;245;27444;-73
2021/04/08 06:40:08;;;;;;;13.82;9.45;;;1.30;99.90;;;;;;484490;245;27499;-73
2021/04/08 06:42:09;;;;;;;13.60;9.68;;;1.30;99.90;;;;;;483405;242;27510;-73
2021/04/08 06:44:10;;;;;;;13.68;10.00;;;1.30;99.90;;;;;;485835;244;28013;-73
2021/04/08 06:46:12;;;;;;;18.62;10.30;;;1.30;99.90;;;;;;490958;242;27997;-73
2021/04/08 06:48:13;;;;;;;14.70;9.40;;;1.20;99.90;;;;;;486121;244;27542;-73
2021/04/08 06:50:14;;;;;;;17.83;10.38;;;1.20;99.90;;;;;;490940;241;27595;-73
2021/04/08 06:52:15;;;;;;;12.82;9.68;;;1.20;99.90;;;;;;479393;243;27425;-73
2021/04/08 06:54:17;;;;;;;14.90;10.18;;;1.30;99.90;;;;;;477295;248;27462;-74
2021/04/08 06:56:18;;;;;;;13.00;9.15;;;1.30;99.90;;;;;;471865;252;28005;-73
2021/04/08 06:58:19;;;;;;;15.55;10.60;;;1.40;99.90;;;;;;471880;252;28253;-73
2021/04/08 07:00:20;;;;;;;17.23;10.40;;;1.50;99.90;;;;;;484475;245;27860;-74
2021/04/08 07:02:22;;;;;;;20.30;10.30;;;1.60;99.90;;;;;;484427;245;27397;-74
2021/04/08 07:04:23;;;;;;;17.85;10.25;;;1.80;99.90;;;;;;484293;245;27622;-73
2021/04/08 07:06:24;;;;;;;14.32;10.90;;;1.80;99.90;;;;;;484423;245;27542;-73
2021/04/08 07:08:28;;;;;;;16.35;10.43;;;2.00;99.90;;;;;;484462;245;27504;-73
2021/04/08 07:10:27;;;;;;;20.65;11.02;;;2.10;99.90;;;;;;484271;244;27534;-74
2021/04/08 07:12:28;;;;;;;15.52;10.27;;;2.20;99.90;;;;;;484527;245;27984;-74
2021/04/08 07:14:29;;;;;;;14.02;9.68;;;2.30;99.90;;;;;;484565;245;27896;-73
2021/04/08 07:16:30;;;;;;;16.55;10.10;;;2.40;99.90;;;;;;484528;245;27444;-74
2021/04/08 07:18:32;;;;;;;19.20;10.90;;;2.50;99.90;;;;;;484605;245;27526;-73
2021/04/08 07:20:33;;;;;;;16.87;10.88;;;2.60;99.90;;;;;;484561;245;27380;-73
2021/04/08 07:22:34;;;;;;;19.30;10.85;;;2.60;99.90;;;;;;484396;245;27409;-75
2021/04/08 07:24:35;;;;;;;23.02;10.02;;;2.60;99.90;;;;;;484436;245;27888;-74
2021/04/08 07:26:37;;;;;;;23.27;10.50;;;2.60;99.90;;;;;;484460;245;27860;-73
2021/04/08 07:28:38;;;;;;;12.63;10.10;;;2.60;99.90;;;;;;484318;244;27501;-74
2021/04/08 07:30:39;;;;;;;15.68;9.38;;;2.60;99.90;;;;;;484421;245;27507;-74
2021/04/08 07:32:44;;;;;;;15.93;10.60;;;2.70;99.90;;;;;;484355;245;27428;-73
2021/04/08 07:34:42;;;;;;;14.52;10.48;;;2.70;99.90;;;;;;484242;245;27525;-74
2021/04/08 07:36:43;;;;;;;18.45;11.02;;;2.80;99.90;;;;;;484429;245;27409;-74
2021/04/08 07:38:44;;;;;;;14.90;9.68;;;2.90;99.90;;;;;;484387;245;27417;-73
2021/04/08 07:40:46;;;;;;;10.68;8.70;;;2.90;99.90;;;;;;484391;245;28655;-74
2021/04/08 07:42:47;;;;;;;16.20;9.88;;;2.90;99.90;;;;;;484434;245;28089;-73
2021/04/08 07:44:48;;;;;;;17.23;9.77;;;3.10;99.90;;;;;;484357;245;27895;-73
2021/04/08 07:46:49;;;;;;;18.33;10.00;;;3.30;99.90;;;;;;484383;245;27532;-73
2021/04/08 07:48:51;;;;;;;13.02;8.65;;;3.30;99.90;;;;;;484440;245;27413;-72
2021/04/08 07:50:52;;;;;;;15.10;9.65;;;3.20;99.90;;;;;;484404;245;27408;-73
2021/04/08 07:52:53;;;;;;;18.65;11.98;;;3.30;99.90;;;;;;484407;245;27491;-73
2021/04/08 07:54:54;;;;;;;20.55;9.85;;;3.40;99.90;;;;;;484424;245;27416;-73
2021/04/08 07:56:56;;;;;;;13.57;8.77;;;3.50;99.90;;;;;;484387;245;27428;-73
2021/04/08 07:58:57;;;;;;;13.60;8.30;;;3.40;99.90;;;;;;484401;245;28051;-73
2021/04/08 08:00:58;;;;;;;11.88;8.00;;;3.40;99.90;;;;;;484433;245;27875;-73
2021/04/08 08:02:59;;;;;;;11.68;8.63;;;3.40;99.90;;;;;;484440;245;27423;-73
2021/04/08 08:05:01;;;;;;;14.25;8.35;;;3.30;99.90;;;;;;484367;245;27548;-73
2021/04/08 08:07:02;;;;;;;14.32;8.30;;;3.40;99.90;;;;;;484448;245;28763;-73
2021/04/08 08:09:03;;;;;;;14.52;8.27;;;3.50;99.90;;;;;;484441;245;27859;-73
2021/04/08 08:11:04;;;;;;;13.68;8.10;;;3.60;99.90;;;;;;484333;245;27416;-73
2021/04/08 08:13:06;;;;;;;32.90;13.23;;;3.80;99.90;;;;;;484424;245;27405;-74
2021/04/08 08:15:07;;;;;;;15.35;9.98;;;3.90;99.90;;;;;;484284;245;27408;-74
2021/04/08 08:17:08;;;;;;;13.57;8.48;;;4.00;99.90;;;;;;484338;245;27793;-73
2021/04/08 08:19:09;;;;;;;44.85;23.75;;;4.20;99.90;;;;;;484412;245;27555;-73
2021/04/08 08:21:11;;;;;;;104.90;52.35;;;4.30;99.90;;;;;;484395;245;27436;-73
2021/04/08 08:23:12;;;;;;;21.45;10.10;;;4.20;99.90;;;;;;484349;245;27982;-73
2021/04/08 08:25:13;;;;;;;39.05;25.00;;;4.20;99.90;;;;;;484403;245;27508;-73
2021/04/08 08:27:14;;;;;;;14.02;7.35;;;4.20;99.90;;;;;;484479;245;27618;-74
2021/04/08 08:29:19;;;;;;;10.50;6.97;;;4.10;99.90;;;;;;484355;245;27497;-73
2021/04/08 08:31:20;;;;;;;12.13;6.75;;;3.80;99.90;;;;;;484463;245;27599;-73
2021/04/08 08:33:21;;;;;;;8.50;5.55;;;3.90;99.90;;;;;;484522;244;27418;-73
2021/04/08 08:35:22;;;;;;;7.62;5.50;;;3.70;99.90;;;;;;484538;245;27492;-74
2021/04/08 08:37:24;;;;;;;12.35;7.30;;;3.50;99.90;;;;;;484618;244;27468;-73
2021/04/08 08:39:25;;;;;;;11.27;7.00;;;3.60;99.90;;;;;;484611;245;27409;-73
2021/04/08 08:41:26;;;;;;;11.48;7.20;;;3.70;99.90;;;;;;484539;245;27474;-73
2021/04/08 08:43:27;;;;;;;8.27;5.18;;;3.80;99.90;;;;;;484595;245;27930;-73
2021/04/08 08:45:29;;;;;;;8.55;5.30;;;3.70;99.90;;;;;;484539;245;27933;-73
2021/04/08 08:47:30;;;;;;;10.25;5.05;;;3.70;99.90;;;;;;484464;245;27420;-73
2021/04/08 08:49:31;;;;;;;9.88;5.80;;;3.60;99.90;;;;;;484531;245;27434;-73
2021/04/08 08:51:32;;;;;;;10.15;4.70;;;3.50;99.90;;;;;;484488;245;27437;-73
2021/04/08 08:53:34;;;;;;;8.52;4.28;;;3.30;99.90;;;;;;484379;245;27490;-73
2021/04/08 08:55:35;;;;;;;7.22;4.07;;;3.20;99.90;;;;;;484405;245;27541;-73
2021/04/08 08:57:37;;;;;;;9.65;4.10;;;3.20;99.90;;;;;;484456;245;27536;-73
2021/04/08 08:59:37;;;;;;;5.50;3.83;;;3.30;99.90;;;;;;484395;245;27437;-73
2021/04/08 09:01:39;;;;;;;8.70;4.60;;;3.40;99.90;;;;;;484452;245;28040;-73
2021/04/08 09:03:40;;;;;;;8.00;4.80;;;3.50;99.90;;;;;;484444;245;27987;-73
2021/04/08 09:05:41;;;;;;;8.35;5.00;;;3.50;99.90;;;;;;484355;245;27998;-73
2021/04/08 09:07:43;;;;;;;8.95;4.37;;;3.40;99.90;;;;;;484467;245;27484;-73
2021/04/08 09:09:46;;;;;;;8.93;3.20;;;3.50;99.90;;;;;;484464;245;27866;-73
2021/04/08 09:11:45;;;;;;;6.68;4.37;;;3.50;99.90;;;;;;484255;244;28162;-73
2021/04/08 09:13:46;;;;;;;7.72;4.00;;;3.60;99.90;;;;;;484436;245;27389;-73
2021/04/08 09:15:48;;;;;;;7.22;4.18;;;3.70;99.90;;;;;;484408;245;27397;-73
2021/04/08 09:17:49;;;;;;;4.55;3.75;;;3.70;99.90;;;;;;484341;245;27472;-73
2021/04/08 09:19:50;;;;;;;7.12;3.55;;;3.70;99.90;;;;;;484419;245;27409;-73
2021/04/08 09:21:51;;;;;;;7.20;3.60;;;3.70;99.90;;;;;;484670;242;27494;-73
2021/04/08 09:23:53;;;;;;;5.18;2.60;;;3.80;99.90;;;;;;485850;243;27555;-73
2021/04/08 09:25:55;;;;;;;5.65;3.10;;;3.90;99.90;;;;;;485857;243;27463;-73
2021/04/08 09:27:55;;;;;;;6.62;2.85;;;4.10;99.90;;;;;;487509;242;27575;-73
2021/04/08 09:29:58;;;;;;;5.80;2.72;;;4.20;99.90;;;;;;488007;242;28007;-73
2021/04/08 09:31:58;;;;;;;3.97;2.65;;;4.30;99.90;;;;;;486773;243;28010;-74
2021/04/08 09:33:59;;;;;;;3.95;2.62;;;4.40;99.90;;;;;;486867;243;27472;-73
2021/04/08 09:36:00;;;;;;;6.47;2.62;;;4.40;99.90;;;;;;490704;239;27418;-73
2021/04/08 09:38:01;;;;;;;7.37;2.95;;;4.50;99.90;;;;;;496252;240;27348;-73
2021/04/08 09:40:03;;;;;;;3.87;2.62;;;4.60;99.90;;;;;;496248;240;27416;-73
2021/04/08 09:42:04;;;;;;;5.45;3.25;;;4.70;99.90;;;;;;496216;240;27362;-74
2021/04/08 09:44:05;;;;;;;5.28;3.65;;;4.80;99.90;;;;;;496199;240;27374;-73
2021/04/08 09:46:06;;;;;;;5.30;2.78;;;4.80;99.90;;;;;;496227;240;27364;-73
2021/04/08 09:48:08;;;;;;;5.10;3.35;;;4.90;99.90;;;;;;496044;240;27846;-74
2021/04/08 09:50:09;;;;;;;4.82;3.55;;;5.20;99.90;;;;;;495926;240;27883;-73
2021/04/08 09:52:10;;;;;;;11.32;4.12;;;5.50;99.90;;;;;;495940;240;27396;-74
2021/04/08 09:54:11;;;;;;;6.95;4.28;;;5.60;99.90;;;;;;495872;240;27409;-72
2021/04/08 09:56:13;;;;;;;7.75;4.43;;;5.70;99.90;;;;;;495889;240;27369;-75
2021/04/08 09:58:14;;;;;;;7.55;4.20;;;5.50;99.90;;;;;;495931;239;27401;-75
2021/04/08 10:00:16;;;;;;;5.93;3.60;;;5.50;99.90;;;;;;495871;240;27444;-72
2021/04/08 10:02:16;;;;;;;4.82;3.65;;;5.60;99.90;;;;;;495846;240;27869;-74
2021/04/08 10:04:18;;;;;;;6.78;4.10;;;5.50;99.90;;;;;;495942;238;27397;-75
2021/04/08 10:06:19;;;;;;;5.03;3.70;;;5.60;99.90;;;;;;495871;240;27362;-74
2021/04/08 10:08:20;;;;;;;8.02;3.62;;;5.80;99.90;;;;;;495861;240;28276;-75
2021/04/08 10:10:22;;;;;;;5.53;3.80;;;5.80;99.90;;;;;;495926;240;27456;-74
2021/04/08 10:12:23;;;;;;;5.80;3.67;;;5.80;99.90;;;;;;495878;240;27492;-75
2021/04/08 10:14:24;;;;;;;6.97;3.63;;;6.10;99.90;;;;;;495964;240;27483;-75
2021/04/08 10:16:25;;;;;;;5.00;3.30;;;6.30;99.90;;;;;;496004;239;28367;-74
2021/04/08 10:18:26;;;;;;;10.13;5.30;;;6.20;99.90;;;;;;495978;240;28831;-75
2021/04/08 10:20:28;;;;;;;6.97;4.07;;;6.10;99.90;;;;;;496067;240;29833;-74
2021/04/08 10:22:29;;;;;;;6.37;4.00;;;5.90;99.80;;;;;;496024;240;28451;-76
2021/04/08 10:24:30;;;;;;;9.73;3.93;;;5.80;99.60;;;;;;495912;240;28085;-75
2021/04/08 10:26:32;;;;;;;6.65;3.95;;;5.60;99.90;;;;;;495815;240;29147;-75
2021/04/08 10:28:33;;;;;;;5.93;3.97;;;5.50;99.90;;;;;;495881;240;27522;-76
2021/04/08 10:30:34;;;;;;;10.95;3.97;;;5.50;99.90;;;;;;495802;240;27492;-75
2021/04/08 10:32:35;;;;;;;8.23;4.20;;;5.60;99.90;;;;;;495652;239;27484;-74